Grant Airport

CSX5 · Quebec, 加拿大

METAR的历史 CSX5 · Grant Airport

下面你可以看到过去几天的METARs。 选择年份以浏览从2007年开始的旧METAR。

2022年11月26日

时间 代码 天气 温度 能见度 天花板 METAR/SPECI
10:00
V
3 °C 9 mi - 200° 200° 8 kt METAR CYHU 261500Z AUTO 20008KT 160V230 9SM FEW021 03/M01 A2991 RMK SLP130
09:50
V
3 °C 9 mi - 210° 210° 10 kt METAR CYHU 261450Z AUTO 21010KT 9SM SCT021 03/M01 A2991 RMK SLP132
09:14
M
2 °C 9 mi 2.300 ft 200° 200° 6 kt METAR CYHU 261414Z AUTO 20006KT 9SM BKN023 BKN029 OVC034 02/M02 A2992 RMK SLP136
09:00
M
2 °C 9 mi 2.900 ft 190° 190° 7 kt METAR CYHU 261400Z AUTO 19007KT 9SM OVC029 02/M03 A2993 RMK SLP138
08:00
V
1 °C 9 mi 3.400 ft Var Var 2 kt METAR CYHU 261300Z AUTO VRB02KT 9SM OVC034 01/M04 A2995 RMK SLP145
07:00
V
1 °C 9 mi 3.600 ft 290° 290° 2 kt METAR CYHU 261200Z AUTO 29002KT 9SM OVC036 01/M04 A2995 RMK SLP144
06:00
V
1 °C 9 mi 4.000 ft 300° 300° 9 kt METAR CYHU 261100Z AUTO 30009KT 260V320 9SM OVC040 01/M04 A2994 RMK SLP142
05:00
V
1 °C 9 mi 3.900 ft 260° 260° 10 - 16 kt METAR CYHU 261000Z AUTO 26010G16KT 9SM OVC039 01/M03 A2991 RMK SLP132
04:00
V
2 °C 9 mi 3.700 ft 280° 280° 6 kt METAR CYHU 260900Z AUTO 28006KT 9SM OVC037 02/M05 A2990 RMK SLP128
03:00
V
2 °C 9 mi 3.700 ft 280° 280° 12 - 17 kt METAR CYHU 260800Z AUTO 28012G17KT 9SM OVC037 02/M04 A2991 RMK SLP130
02:00
V
2 °C 9 mi 3.700 ft 280° 280° 6 kt METAR CYHU 260700Z AUTO 28006KT 9SM OVC037 02/M04 A2990 RMK SLP127
01:00
V
2 °C 9 mi 3.500 ft 280° 280° 8 kt METAR CYHU 260600Z AUTO 28008KT 9SM OVC035 02/M03 A2989 RMK SLP123
00:00
V
2 °C 9 mi 3.700 ft 280° 280° 9 - 16 kt METAR CYHU 260500Z AUTO 28009G16KT 9SM OVC037 02/M04 A2987 RMK SLP117

2022年11月25日

时间 代码 天气 温度 能见度 天花板 METAR/SPECI
23:00
V
2 °C 9 mi 4.100 ft 300° 300° 11 kt METAR CYHU 260400Z AUTO 30011KT 9SM OVC041 02/M04 A2985 RMK SLP111
22:00
V
2 °C 9 mi 3.900 ft 310° 310° 13 kt METAR CYHU 260300Z AUTO 31013KT 9SM OVC039 02/M04 A2983 RMK SLP105
21:00
V
3 °C 9 mi 3.900 ft 310° 310° 15 - 26 kt METAR CYHU 260200Z AUTO 31015G26KT 9SM OVC039 03/M03 A2980 RMK SLP095
20:00
V
3 °C 9 mi 3.900 ft 280° 280° 12 - 18 kt METAR CYHU 260100Z AUTO 28012G18KT 9SM OVC039 03/M01 A2978 RMK SLP088
19:00
V
3 °C 9 mi 10.000 ft 290° 290° 15 - 23 kt METAR CYHU 260000Z AUTO 29015G23KT 9SM SCT037 BKN100 BKN170 03/M02 A2975 RMK SLP077
18:00
V
3 °C 9 mi 12.000 ft 290° 290° 14 - 21 kt METAR CYHU 252300Z AUTO 29014G21KT 9SM SCT039 BKN120 OVC160 03/M00 A2972 RMK SLP067
17:00
V
4 °C 9 mi 3.900 ft 270° 270° 13 - 22 kt METAR CYHU 252200Z AUTO 27013G22KT 9SM BKN039 04/M00 A2969 RMK SLP058
16:00
V
4 °C 9 mi 3.500 ft 280° 280° 14 - 25 kt METAR CYHU 252100Z AUTO 28014G25KT 9SM OVC035 04/00 A2966 RMK SLP048
15:00
M
4 °C 9 mi 2.900 ft 270° 270° 15 - 22 kt METAR CYHU 252000Z AUTO 27015G22KT 9SM FEW019 OVC029 04/01 A2962 RMK SLP034
14:52
M
4 °C 9 mi 2.600 ft 280° 280° 17 - 24 kt SPECI CYHU 251952Z AUTO 28017G24KT 9SM FEW017 OVC026 04/02 A2962 RMK SLP032
14:06
M
5 °C 9 mi 2.200 ft 270° 270° 17 kt METAR CYHU 251906Z AUTO 27017KT 9SM SCT015 BKN022 OVC041 05/03 A2958 RMK SLP020
13:00
M
5 °C 6 mi 1.300 ft 260° 260° 15 - 22 kt METAR CYHU 251800Z AUTO 26015G22KT 6SM -RA BR OVC013 05/04 A2956 RMK SLP012
12:00
M
3 °C 7 mi 1.100 ft 200° 200° 6 kt METAR CYHU 251700Z AUTO 20006KT 7SM -RA OVC011 03/02 A2957 RMK SLP017
11:50
M
3 °C 7 mi 1.100 ft 200° 200° 8 kt METAR CYHU 251650Z AUTO 20008KT 7SM -RA OVC011 03/02 A2958 RMK SLP019
11:22
M
3 °C 7 mi 1.300 ft 210° 210° 7 kt METAR CYHU 251622Z AUTO 21007KT 7SM OVC013 03/02 A2959 RMK SLP022
11:11
M
3 °C 6 mi 1.300 ft 210° 210° 8 kt METAR CYHU 251611Z AUTO 21008KT 6SM -RA BR OVC013 03/02 A2959 RMK SLP024
11:00
I
3 °C 3 mi 1.300 ft 190° 190° 8 kt METAR CYHU 251600Z AUTO 19008KT 3SM -RA BR OVC013 03/02 A2960 RMK PCPN 0.8MM PAST HR SLP026
10:26
M
3 °C 5 mi 2.400 ft 180° 180° 10 kt METAR CYHU 251526Z AUTO 18010KT 5SM -RA BR OVC024 03/02 A2962 RMK PCPN 0.5MM PAST HR SLP033
10:13
M
3 °C 6 mi 2.400 ft 180° 180° 10 - 15 kt METAR CYHU 251513Z AUTO 18010G15KT 6SM -RA BR OVC024 03/02 A2962 RMK SLP035
10:00
M
3 °C 6 mi 2.600 ft 180° 180° 9 kt METAR CYHU 251500Z AUTO 18009KT 6SM -RA BR OVC026 03/02 A2963 RMK PCPN 1.0MM PAST HR SLP038
09:40
M
3 °C 6 mi 2.800 ft 190° 190° 8 - 15 kt METAR CYHU 251440Z AUTO 19008G15KT 6SM -RA BR OVC028 03/02 A2965 RMK PCPN 1.0MM PAST HR SLP044
09:21
V
4 °C 5 mi 3.200 ft 180° 180° 11 - 18 kt METAR CYHU 251421Z AUTO 18011G18KT 5SM -RA BR BKN032 OVC040 04/02 A2966 RMK PCPN 0.5MM PAST HR SLP046
09:00
V
4 °C 9 mi 4.100 ft 160° 160° 10 - 15 kt METAR CYHU 251400Z AUTO 16010G15KT 9SM -RA BKN041 OVC050 04/01 A2967 RMK SLP050
08:48
V
4 °C 9 mi 4.500 ft 170° 170° 10 kt METAR CYHU 251348Z AUTO 17010KT 9SM -RA BKN045 OVC055 04/02 A2968 RMK SLP053
08:20
V
3 °C 9 mi 3.800 ft 160° 160° 9 kt METAR CYHU 251320Z AUTO 16009KT 9SM OVC038 03/02 A2969 RMK SLP057
08:00
V
1 °C 6 mi 3.800 ft 140° 140° 4 kt METAR CYHU 251300Z AUTO 14004KT 6SM -RA BR OVC038 01/00 A2970 RMK PCPN 0.5MM PAST HR SLP062
07:54
V
1 °C 6 mi 3.800 ft 140° 140° 5 kt METAR CYHU 251254Z AUTO 14005KT 6SM -RA BR OVC038 01/00 A2971 RMK PCPN 0.5MM PAST HR SLP063
07:42
V
0 °C 5 mi 4.100 ft 140° 140° 4 kt METAR CYHU 251242Z AUTO 14004KT 5SM -RA BR OVC041 00/M01 A2972 RMK PRESFR SLP066
07:33
V
0 °C 5 mi 4.300 ft 130° 130° 2 kt METAR CYHU 251233Z AUTO 13002KT 5SM -SNRA OVC043 00/M01 A2973 RMK PRESFR SLP070
07:30
V
0 °C 5 mi 4.300 ft 130° 130° 2 kt SPECI CYHU 251230Z AUTO 13002KT 5SM -SN OVC043 M00/M01 A2973 RMK PRESFR SLP071
07:00
V
-1 °C 7 mi 4.300 ft Var Var 2 kt METAR CYHU 251200Z AUTO VRB02KT 7SM -SN BKN043 OVC055 M01/M02 A2975 RMK SLP078
06:06
V
-1 °C 9 mi 5.500 ft 300° 300° 5 kt SPECI CYHU 251106Z AUTO 30005KT 9SM -SN FEW039 OVC055 M01/M02 A2978 RMK SLP089
06:04
V
-1 °C 9 mi 5.000 ft 310° 310° 2 kt METAR CYHU 251104Z AUTO 31002KT 9SM -SNRA FEW039 OVC050 M01/M02 A2978 RMK SLP088
05:56
V
-1 °C 9 mi 5.500 ft 300° 300° 2 kt METAR CYHU 251056Z AUTO 30002KT 9SM -SN BKN055 OVC071 M01/M02 A2978 RMK SLP089
05:00
V
-2 °C 9 mi 12.000 ft Var Var 2 kt METAR CYHU 251000Z AUTO VRB02KT 9SM SCT091 OVC120 M02/M03 A2982 RMK SLP102
04:00
V
-2 °C 9 mi 13.000 ft 340° 340° 4 kt METAR CYHU 250900Z AUTO 34004KT 9SM OVC130 M02/M04 A2986 RMK SLP114
03:00
V
-3 °C 9 mi 14.000 ft 030° 030° 2 kt METAR CYHU 250800Z AUTO 03002KT 9SM OVC140 M03/M04 A2989 RMK SLP125
02:00
V
-3 °C 9 mi 15.000 ft 020° 020° 3 kt METAR CYHU 250700Z AUTO 02003KT 9SM OVC150 M03/M05 A2995 RMK SLP144
01:00
V
-3 °C 9 mi 17.000 ft 350° 350° 3 kt METAR CYHU 250600Z AUTO 35003KT 9SM BKN170 OVC220 M03/M05 A2997 RMK SLP152
00:00
V
-4 °C 9 mi 24.000 ft 330° 330° 3 kt METAR CYHU 250500Z AUTO 33003KT 9SM BKN240 M04/M05 A3000 RMK SLP164

2022年11月24日

时间 代码 天气 温度 能见度 天花板 METAR/SPECI
23:00
V
-3 °C 9 mi - 010° 010° 5 kt METAR CYHU 250400Z AUTO 01005KT 9SM FEW200 M03/M05 A3003 RMK PRESFR SLP172
22:00
V
-3 °C 9 mi - 350° 350° 5 kt METAR CYHU 250300Z AUTO 35005KT 9SM CLR M03/M05 A3008 RMK SLP189
21:00
V
-3 °C 9 mi - 350° 350° 4 kt METAR CYHU 250200Z AUTO 35004KT 9SM CLR M03/M04 A3009 RMK SLP192
20:00
V
-3 °C 9 mi - 350° 350° 5 kt METAR CYHU 250100Z AUTO 35005KT 9SM SCT044 M03/M05 A3013 RMK SLP206
19:00
V
-1 °C 9 mi 4.700 ft 360° 360° 3 kt METAR CYHU 250000Z AUTO 36003KT 9SM BKN047 M01/M04 A3015 RMK SLP215
18:00
V
-1 °C 9 mi - 090° 090° 4 kt METAR CYHU 242300Z AUTO 09004KT 9SM CLR M01/M04 A3016 RMK SLP218
17:00
V
0 °C 9 mi - 090° 090° 4 kt METAR CYHU 242200Z AUTO 09004KT 9SM CLR M00/M03 A3019 RMK SLP227
16:00
V
1 °C 9 mi - 120° 120° 6 kt METAR CYHU 242100Z AUTO 12006KT 9SM CLR 01/M03 A3021 RMK SLP234
15:00
V
1 °C 9 mi - 130° 130° 9 kt METAR CYHU 242000Z AUTO 13009KT 9SM CLR 01/M03 A3023 RMK SLP241
14:00
V
2 °C 9 mi - 130° 130° 9 kt METAR CYHU 241900Z AUTO 13009KT 9SM CLR 02/M03 A3025 RMK SLP247
13:00
V
2 °C 9 mi - 120° 120° 7 kt METAR CYHU 241800Z AUTO 12007KT 9SM SCT031 02/M03 A3027 RMK SLP254
12:00
V
1 °C 9 mi - 020° 020° 3 kt METAR CYHU 241700Z AUTO 02003KT 9SM SCT041 01/M04 A3030 RMK SLP265
11:00
V
1 °C 9 mi 4.300 ft Var Var 2 kt METAR CYHU 241600Z AUTO VRB02KT 9SM BKN043 01/M05 A3033 RMK PRESFR SLP275
10:00
V
-1 °C 9 mi - 360° 360° 3 kt METAR CYHU 241500Z AUTO 36003KT 320V020 9SM FEW044 M01/M05 A3036 RMK SLP284
09:00
V
-2 °C 9 mi 3.200 ft 050° 050° 3 kt METAR CYHU 241400Z AUTO 05003KT 9SM BKN032 M02/M07 A3037 RMK SLP288
08:00
V
-3 °C 9 mi 3.200 ft 100° 100° 5 kt METAR CYHU 241300Z AUTO 10005KT 9SM OVC032 M03/M07 A3037 RMK SLP288
07:00
V
-4 °C 9 mi 3.200 ft Var Var 2 kt METAR CYHU 241200Z AUTO VRB02KT 9SM OVC032 M04/M08 A3038 RMK SLP291
06:00
V
-4 °C 9 mi 3.200 ft 040° 040° 3 kt METAR CYHU 241100Z AUTO 04003KT 9SM OVC032 M04/M07 A3039 RMK SLP293
05:00
V
-5 °C 9 mi 3.800 ft 030° 030° 3 kt METAR CYHU 241000Z AUTO 03003KT 9SM OVC038 M05/M08 A3039 RMK SLP293

我们和第三方通过cookies跟踪您在我们网站上的互联网行为。如果你继续,我们认为你同意我们的饼干政策